Time;durP1;ratioP1;P1;durP2;ratioP2;P2;SDS_P1;SDS_P2;PMS_P1;PMS_P2;Temp;Humidity;BMP_temperature;BMP_pressure;BME280_temperature;BME280_humidity;BME280_pressure;Samples;Min_cycle;Max_cycle;Signal;HPM_P1;HPM_P2
2022/03/04 00:04:45;;;;;;;72.00;34.37;;;;;;;0.58;95.83;100987.83;3579454;80;99085;-85
2022/03/04 00:09:46;;;;;;;76.50;33.23;;;;;;;0.58;95.90;100987.28;3567435;81;99194;-85
2022/03/04 00:14:47;;;;;;;73.50;32.03;;;;;;;0.59;95.86;100992.95;3573473;80;99199;-85
2022/03/04 00:19:48;;;;;;;65.10;30.27;;;;;;;0.60;96.03;100986.42;3541752;81;99043;-84
2022/03/04 00:24:49;;;;;;;58.77;28.83;;;;;;;0.60;96.26;100987.78;3549955;82;31658;-83
2022/03/04 00:29:50;;;;;;;61.00;27.33;;;;;;;0.60;96.62;100983.72;3547796;80;108601;-85
2022/03/04 00:34:51;;;;;;;59.80;26.70;;;;;;;0.64;96.62;100976.61;3551128;82;99209;-85
2022/03/04 00:39:52;;;;;;;56.57;24.00;;;;;;;0.64;96.62;100976.61;3541784;79;99119;-85
2022/03/04 00:44:52;;;;;;;50.63;23.07;;;;;;;0.64;97.07;100986.63;3534956;81;99354;-85
2022/03/04 00:49:53;;;;;;;44.20;22.27;;;;;;;0.66;97.25;100984.45;3552611;82;99085;-85
2022/03/04 00:54:54;;;;;;;43.83;20.70;;;;;;;0.67;97.34;100986.83;3547063;82;31353;-85
2022/03/04 00:59:55;;;;;;;37.33;18.20;;;;;;;0.69;97.48;100972.46;3537443;81;99326;-85
2022/03/04 01:04:56;;;;;;;45.12;17.82;;;;;;;0.71;97.69;100975.66;3553919;81;98964;-85
2022/03/04 01:09:57;;;;;;;40.60;18.17;;;;;;;0.74;97.73;100979.14;3551641;81;99101;-85
2022/03/04 01:14:58;;;;;;;37.90;16.53;;;;;;;0.76;97.71;100973.41;3538757;79;98940;-83
2022/03/04 01:19:58;;;;;;;30.07;14.70;;;;;;;0.79;97.97;100976.88;3542048;81;98883;-85
2022/03/04 01:24:59;;;;;;;28.10;13.87;;;;;;;0.80;98.00;100977.95;3546372;82;34742;-85
2022/03/04 01:30:02;;;;;;;30.15;13.30;;;;;;;0.84;97.79;100982.21;3542907;80;98615;-85
2022/03/04 01:35:04;;;;;;;29.37;12.00;;;;;;;0.86;97.94;100979.45;3560847;81;98964;-85
2022/03/04 01:40:08;;;;;;;25.43;11.48;;;;;;;0.88;97.87;100975.89;3549156;81;98884;-84
2022/03/04 01:45:10;;;;;;;24.47;13.00;;;;;;;0.89;97.99;100978.05;3563541;79;99289;-86
2022/03/04 01:50:11;;;;;;;21.67;9.57;;;;;;;0.90;98.07;100976.41;3551969;79;98896;-85
2022/03/04 01:55:11;;;;;;;21.37;9.47;;;;;;;0.91;98.15;100982.61;3554385;81;34856;-84
2022/03/04 02:00:14;;;;;;;21.70;10.27;;;;;;;0.94;98.03;100979.31;3563676;80;98308;-84
2022/03/04 02:05:18;;;;;;;24.67;10.80;;;;;;;0.94;98.06;100980.67;3544842;81;98749;-86
2022/03/04 02:10:18;;;;;;;28.80;13.33;;;;;;;0.91;98.45;100983.43;3548085;81;99354;-85
2022/03/04 02:15:19;;;;;;;33.93;13.20;;;;;;;0.91;98.19;100979.37;3565862;81;99071;-85
2022/03/04 02:20:24;;;;;;;27.83;10.17;;;;;;;0.93;98.28;100980.42;3565184;80;99200;-85
2022/03/04 02:25:25;;;;;;;21.20;8.77;;;;;;;0.92;98.35;100986.38;3531675;80;98791;-84
2022/03/04 02:30:26;;;;;;;18.87;9.03;;;;;;;0.92;98.31;100980.16;3554179;81;98522;-84
2022/03/04 02:35:30;;;;;;;16.57;7.65;;;;;;;0.95;98.34;100984.98;3576849;80;98539;-84
2022/03/04 02:40:31;;;;;;;16.27;7.15;;;;;;;0.96;98.08;100982.52;3550281;81;98918;-83
2022/03/04 02:45:34;;;;;;;15.63;6.87;;;;;;;0.96;98.06;100992.00;3578434;81;99068;-84
2022/03/04 02:50:34;;;;;;;13.62;6.10;;;;;;;0.95;98.11;100993.93;3577474;80;99121;-85
2022/03/04 02:55:36;;;;;;;15.73;5.77;;;;;;;0.95;98.14;100989.87;3569116;81;98987;-85
2022/03/04 03:00:37;;;;;;;13.80;5.97;;;;;;;0.96;98.09;100993.36;3551059;81;98457;-84
2022/03/04 03:05:37;;;;;;;11.70;5.30;;;;;;;0.97;98.12;100989.55;3559909;81;98611;-84
2022/03/04 03:10:39;;;;;;;14.55;5.45;;;;;;;0.96;97.95;100984.69;3553094;81;99016;-84
2022/03/04 03:15:40;;;;;;;13.67;5.40;;;;;;;0.93;98.09;100986.63;3508060;82;99017;-84
2022/03/04 03:20:41;;;;;;;11.57;4.87;;;;;;;0.91;98.06;100982.61;3553158;81;98868;-82
2022/03/04 03:25:42;;;;;;;13.73;4.53;;;;;;;0.88;97.94;100979.95;3512311;82;99280;-84
2022/03/04 03:30:43;;;;;;;9.23;4.33;;;;;;;0.85;97.85;100981.10;3541096;81;98938;-84
2022/03/04 03:35:44;;;;;;;14.43;5.33;;;;;;;0.82;97.88;100979.80;3566186;79;98388;-83
2022/03/04 03:40:44;;;;;;;10.83;3.93;;;;;;;0.79;97.83;100987.19;3541401;80;98929;-84
2022/03/04 03:45:45;;;;;;;12.28;4.65;;;;;;;0.74;97.78;100994.58;3558527;81;99234;-85
2022/03/04 03:50:46;;;;;;;12.37;4.70;;;;;;;0.69;97.86;100996.84;3550241;81;99072;-85
2022/03/04 03:55:47;;;;;;;11.80;4.03;;;;;;;0.65;97.74;100993.65;3546045;81;98658;-84
2022/03/04 04:00:48;;;;;;;11.50;4.83;;;;;;;0.62;97.70;100992.34;3550940;80;98896;-85
2022/03/04 04:05:49;;;;;;;12.77;4.63;;;;;;;0.57;97.78;100995.70;3521017;81;98571;-84
2022/03/04 04:10:50;;;;;;;10.23;4.60;;;;;;;0.53;97.74;100988.72;3540054;81;98874;-85
2022/03/04 04:15:51;;;;;;;15.27;4.77;;;;;;;0.52;97.97;100991.72;3555886;81;99166;-85
2022/03/04 04:20:52;;;;;;;8.60;3.70;;;;;;;0.51;98.19;100988.20;3552895;81;99069;-84
2022/03/04 04:25:53;;;;;;;11.13;4.07;;;;;;;0.50;98.01;100998.78;3551008;81;99091;-84
2022/03/04 04:30:54;;;;;;;9.87;3.70;;;;;;;0.50;98.39;101013.67;3553565;80;98772;-84
2022/03/04 04:35:54;;;;;;;9.60;3.83;;;;;;;0.47;98.26;101002.64;3560290;81;98666;-84
2022/03/04 04:40:55;;;;;;;10.47;3.70;;;;;;;0.44;98.15;100999.19;3555159;81;98533;-85
2022/03/04 04:45:56;;;;;;;9.73;3.70;;;;;;;0.39;98.01;100993.28;3544156;79;98938;-84
2022/03/04 04:50:59;;;;;;;13.47;4.87;;;;;;;0.35;98.21;100999.05;3538903;79;98901;-84
2022/03/04 04:56:01;;;;;;;15.20;3.83;;;;;;;0.33;98.37;100993.68;3556063;80;99020;-84
2022/03/04 05:01:02;;;;;;;12.25;3.67;;;;;;;0.30;98.35;100989.66;3544268;81;98920;-85
2022/03/04 05:06:03;;;;;;;9.63;3.80;;;;;;;0.25;98.66;100993.80;3532754;82;99011;-85
2022/03/04 05:11:04;;;;;;;11.07;3.70;;;;;;;0.22;98.54;100995.73;3556042;78;98821;-83
2022/03/04 05:16:05;;;;;;;10.90;3.27;;;;;;;0.18;98.36;100994.70;3549553;82;98905;-84
2022/03/04 05:21:06;;;;;;;11.03;3.70;;;;;;;0.12;98.31;100995.09;3544663;81;99030;-85
2022/03/04 05:26:07;;;;;;;10.65;3.87;;;;;;;0.05;98.55;101008.17;3546583;81;98753;-85
2022/03/04 05:31:07;;;;;;;11.87;3.73;;;;;;;0.01;98.73;101008.52;3538088;81;98648;-85
2022/03/04 05:36:08;;;;;;;9.47;3.63;;;;;;;-0.04;98.93;101009.38;3539483;81;98942;-85
2022/03/04 05:41:09;;;;;;;12.67;4.50;;;;;;;-0.09;98.93;101012.16;3557184;79;98932;-85
2022/03/04 05:46:11;;;;;;;9.10;3.67;;;;;;;-0.11;98.77;101010.30;3539088;81;99280;-85
2022/03/04 05:51:12;;;;;;;9.03;3.30;;;;;;;-0.13;99.12;101004.92;3546361;80;99042;-86
2022/03/04 05:56:13;;;;;;;11.67;4.53;;;;;;;-0.14;99.26;101015.50;3554147;81;97906;-86
2022/03/04 06:01:14;;;;;;;13.50;5.30;;;;;;;-0.18;99.08;101022.58;3562477;81;99152;-86
2022/03/04 06:06:15;;;;;;;9.67;4.57;;;;;;;-0.21;99.37;101036.70;3539965;82;98522;-86
2022/03/04 06:11:16;;;;;;;14.17;4.47;;;;;;;-0.28;99.33;101041.64;3540506;81;98933;-86
2022/03/04 06:16:17;;;;;;;8.90;3.70;;;;;;;-0.29;99.27;101044.09;3547953;81;99369;-86
2022/03/04 06:21:18;;;;;;;9.70;4.03;;;;;;;-0.31;99.52;101048.44;3566638;81;98905;-87
2022/03/04 06:26:20;;;;;;;10.60;3.40;;;;;;;-0.32;99.55;101051.98;3563982;80;99104;-86
2022/03/04 06:31:20;;;;;;;9.43;3.60;;;;;;;-0.36;98.96;101055.25;3560207;80;99293;-86
2022/03/04 06:36:21;;;;;;;11.10;4.90;;;;;;;-0.37;98.76;101065.82;3558266;81;32128;-86
2022/03/04 06:41:22;;;;;;;16.60;9.00;;;;;;;-0.39;98.51;101071.26;3545924;81;98957;-86
2022/03/04 06:46:23;;;;;;;15.07;7.60;;;;;;;-0.38;98.85;101081.00;3560076;81;99163;-87
2022/03/04 06:51:24;;;;;;;14.53;7.20;;;;;;;-0.34;99.32;101086.64;3554938;80;99135;-88
2022/03/04 06:56:25;;;;;;;10.37;5.63;;;;;;;-0.29;99.34;101090.63;3474198;83;99251;-85
2022/03/04 07:01:26;;;;;;;13.57;5.17;;;;;;;-0.17;100.00;101091.80;3452809;83;99370;-85
2022/03/04 07:06:26;;;;;;;10.93;5.00;;;;;;;-0.05;100.00;101097.06;3453443;84;31653;-84
2022/03/04 07:11:27;;;;;;;12.93;4.73;;;;;;;0.14;100.00;101087.61;3470771;82;99325;-86
2022/03/04 07:16:28;;;;;;;15.30;5.10;;;;;;;0.31;100.00;101090.08;3458662;84;99185;-85
2022/03/04 07:21:29;;;;;;;13.20;5.23;;;;;;;0.55;100.00;101102.17;3437814;81;99212;-85
2022/03/04 07:26:30;;;;;;;15.30;6.93;;;;;;;0.78;100.00;101107.47;3438989;84;99067;-85
2022/03/04 07:31:31;;;;;;;14.80;6.00;;;;;;;1.00;100.00;101106.28;3438331;84;99141;-86
2022/03/04 07:36:33;;;;;;;14.60;5.90;;;;;;;1.20;100.00;101110.00;3422395;84;29853;-85
2022/03/04 07:41:34;;;;;;;15.67;7.07;;;;;;;1.40;100.00;101119.67;3435472;83;99197;-87
2022/03/04 07:46:34;;;;;;;15.17;6.83;;;;;;;1.60;100.00;101113.88;3446431;83;99281;-88
2022/03/04 07:51:36;;;;;;;18.87;7.37;;;;;;;1.81;100.00;101120.52;3389176;85;99490;-89
2022/03/04 07:56:37;;;;;;;15.80;5.80;;;;;;;1.99;100.00;101120.41;3459281;84;99251;-88
2022/03/04 08:01:38;;;;;;;14.00;6.70;;;;;;;2.11;99.47;101134.27;3450787;83;99409;-89
2022/03/04 08:06:39;;;;;;;16.27;6.30;;;;;;;2.24;99.17;101134.00;3463838;83;35416;-88
2022/03/04 08:11:40;;;;;;;16.33;6.70;;;;;;;2.34;98.68;101140.00;3448943;83;99092;-89
2022/03/04 08:16:42;;;;;;;16.33;6.67;;;;;;;2.44;98.42;101150.64;3464918;83;99118;-88
2022/03/04 08:21:45;;;;;;;17.40;6.90;;;;;;;2.55;97.87;101158.82;3459922;83;99045;-88
2022/03/04 08:26:45;;;;;;;15.83;6.83;;;;;;;2.58;97.50;101162.27;3472836;82;99003;-88
2022/03/04 08:31:46;;;;;;;19.67;7.67;;;;;;;2.68;97.46;101152.53;3446553;83;98790;-88
2022/03/04 08:36:49;;;;;;;16.47;6.60;;;;;;;2.75;96.98;101165.70;3455836;84;36040;-87
2022/03/04 08:41:50;;;;;;;16.35;5.90;;;;;;;2.74;96.46;101168.97;3461704;82;99129;-87
2022/03/04 08:46:51;;;;;;;12.93;5.77;;;;;;;2.81;96.71;101173.44;3457455;84;99396;-87
2022/03/04 08:51:52;;;;;;;18.67;5.87;;;;;;;2.90;96.51;101171.58;3457544;83;98989;-87
2022/03/04 08:56:53;;;;;;;19.30;6.37;;;;;;;2.94;96.23;101182.09;3455343;83;98738;-88
2022/03/04 09:01:54;;;;;;;14.07;7.60;;;;;;;2.97;96.03;101180.13;3454303;83;99079;-87
2022/03/04 09:06:54;;;;;;;13.47;5.50;;;;;;;3.07;95.95;101181.80;3441265;83;34875;-86
2022/03/04 09:11:55;;;;;;;16.80;6.07;;;;;;;3.16;96.00;101185.39;3448606;83;99276;-87
2022/03/04 09:16:56;;;;;;;12.37;4.47;;;;;;;3.33;96.32;101186.29;3454287;84;98528;-88
2022/03/04 09:21:58;;;;;;;12.43;3.80;;;;;;;3.51;95.84;101192.11;3450523;82;98731;-87
2022/03/04 09:26:59;;;;;;;9.53;3.30;;;;;;;3.68;95.81;101201.72;3454087;84;99164;-88
2022/03/04 09:32:00;;;;;;;10.18;3.20;;;;;;;3.79;95.05;101195.44;3454657;82;98952;-88
2022/03/04 09:37:01;;;;;;;11.37;3.80;;;;;;;3.83;94.37;101194.48;3460334;84;29182;-86
2022/03/04 09:42:03;;;;;;;7.57;2.47;;;;;;;3.96;93.96;101190.88;3447874;84;98935;-90
2022/03/04 09:47:06;;;;;;;6.87;2.90;;;;;;;4.03;92.35;101205.38;3453285;83;98915;-88
2022/03/04 09:52:08;;;;;;;8.08;2.52;;;;;;;4.04;91.67;101208.38;3451475;84;98846;-86
2022/03/04 09:57:09;;;;;;;6.33;2.27;;;;;;;4.18;92.37;101206.33;3457305;84;98789;-87
2022/03/04 10:02:14;;;;;;;10.60;2.50;;;;;;;4.29;90.85;101196.75;3459021;83;98588;-87
2022/03/04 10:07:17;;;;;;;8.80;2.20;;;;;;;4.41;91.37;101198.30;3435506;84;33026;-88
2022/03/04 10:12:22;;;;;;;5.35;1.90;;;;;;;4.54;89.89;101196.02;3462590;83;98533;-89
2022/03/04 10:17:24;;;;;;;5.67;1.77;;;;;;;4.69;90.29;101194.20;3454937;84;98740;-91
2022/03/04 10:22:42;;;;;;;5.58;1.80;;;;;;;4.66;89.02;101198.37;3464775;83;98754;-87
2022/03/04 10:27:44;;;;;;;10.13;3.72;;;;;;;4.72;88.75;101196.27;3453753;83;98634;-87
2022/03/04 10:32:45;;;;;;;10.87;3.70;;;;;;;4.76;87.79;101200.76;3446262;83;99239;-87
2022/03/04 10:37:55;;;;;;;8.50;2.70;;;;;;;4.69;87.80;101200.44;3459875;82;98943;-88
2022/03/04 10:43:07;;;;;;;8.25;2.77;;;;;;;4.76;88.17;101203.48;3454788;83;98729;-90
2022/03/04 10:48:15;;;;;;;6.03;1.87;;;;;;;4.87;88.14;101194.45;3460886;83;98636;-91
2022/03/04 10:53:21;;;;;;;4.60;2.20;;;;;;;4.94;87.72;101187.39;3448360;83;98779;-89
2022/03/04 10:58:29;;;;;;;7.15;2.25;;;;;;;5.07;88.45;101187.00;3460636;84;98605;-87
2022/03/04 11:03:34;;;;;;;6.22;2.50;;;;;;;5.25;86.40;101192.09;3455044;83;98741;-90
2022/03/04 11:08:38;;;;;;;6.83;2.77;;;;;;;5.12;85.35;101190.92;3468215;83;98925;-89
2022/03/04 11:13:41;;;;;;;6.78;2.15;;;;;;;5.19;86.48;101196.69;3453728;82;98820;-87
2022/03/04 11:18:43;;;;;;;6.97;2.27;;;;;;;5.19;86.48;101196.69;3461371;84;32980;-86
2022/03/04 11:23:47;;;;;;;6.20;2.15;;;;;;;5.18;85.37;101204.64;3431670;82;98448;-87
2022/03/04 11:28:51;;;;;;;7.80;2.17;;;;;;;5.20;85.66;101205.11;3415116;82;98629;-88
2022/03/04 11:33:58;;;;;;;7.60;2.40;;;;;;;5.23;84.23;101209.94;3546207;81;98486;-89
2022/03/04 11:39:14;;;;;;;6.60;2.60;;;;;;;5.24;84.77;101203.35;3550278;80;98947;-89
2022/03/04 11:44:22;;;;;;;9.17;3.17;;;;;;;5.32;84.66;101206.63;3536494;82;98556;-89
2022/03/04 11:49:47;;;;;;;6.87;2.30;;;;;;;5.44;84.23;101210.30;3550578;79;98504;-88
2022/03/04 11:55:11;;;;;;;8.08;2.15;;;;;;;5.44;83.28;101213.03;3557101;81;36072;-88
2022/03/04 12:00:20;;;;;;;6.42;2.40;;;;;;;5.34;82.24;101212.00;3537346;80;98746;-89
2022/03/04 12:05:30;;;;;;;10.08;2.75;;;;;;;5.30;82.75;101214.34;3541305;81;98347;-88
2022/03/04 12:10:41;;;;;;;6.58;2.17;;;;;;;5.24;81.59;101215.63;3538916;82;98932;-89
2022/03/04 12:15:47;;;;;;;16.50;7.15;;;;;;;5.26;82.11;101213.37;3459414;82;98678;-87
2022/03/04 12:21:15;;;;;;;10.37;5.17;;;;;;;5.27;82.02;101214.42;3455758;83;98966;-90
2022/03/04 12:26:22;;;;;;;10.08;3.08;;;;;;;5.29;82.72;101220.93;3455001;83;98754;-91
2022/03/04 12:31:24;;;;;;;11.40;2.77;;;;;;;5.31;81.50;101212.66;3454776;83;99132;-89
2022/03/04 12:36:30;;;;;;;8.07;3.10;;;;;;;5.19;81.35;101217.94;3452642;84;28153;-87
2022/03/04 12:41:35;;;;;;;11.35;3.67;;;;;;;5.14;81.58;101220.83;3447539;83;98742;-88
2022/03/04 12:46:40;;;;;;;7.50;2.47;;;;;;;5.13;81.77;101217.08;3471824;83;99025;-87
2022/03/04 12:51:44;;;;;;;11.53;3.27;;;;;;;5.12;81.85;101211.39;3430980;82;98685;-87
2022/03/04 12:56:58;;;;;;;10.98;3.42;;;;;;;5.17;82.20;101218.02;3455658;83;99007;-87
2022/03/04 13:01:59;;;;;;;8.15;2.25;;;;;;;5.23;81.89;101215.40;3431886;82;98954;-86
2022/03/04 13:07:02;;;;;;;7.07;2.27;;;;;;;5.21;81.62;101218.44;3410686;85;26822;-88
2022/03/04 13:12:08;;;;;;;9.40;3.47;;;;;;;5.10;81.32;101211.70;3450316;82;98681;-87
2022/03/04 13:17:12;;;;;;;7.33;2.73;;;;;;;5.05;81.69;101210.50;3436169;84;98384;-89
2022/03/04 13:22:16;;;;;;;7.60;2.43;;;;;;;4.97;81.46;101214.02;3399448;84;99022;-87
2022/03/04 13:27:18;;;;;;;12.40;4.67;;;;;;;4.97;81.42;101220.05;3566093;80;98777;-87
2022/03/04 13:32:22;;;;;;;14.17;4.83;;;;;;;4.98;81.50;101225.73;3552132;81;98903;-86
2022/03/04 13:37:31;;;;;;;8.75;3.10;;;;;;;5.03;81.79;101218.77;3561962;81;99073;-86
2022/03/04 13:42:48;;;;;;;11.47;3.53;;;;;;;5.08;81.18;101215.88;3551846;81;98606;-87
2022/03/04 13:47:57;;;;;;;26.87;10.20;;;;;;;5.06;80.66;101218.11;3558156;81;98472;-88
2022/03/04 13:53:18;;;;;;;19.40;5.50;;;;;;;5.07;81.27;101209.61;3527643;81;99191;-88
2022/03/04 13:58:24;;;;;;;9.15;3.15;;;;;;;5.10;80.85;101210.34;3549052;81;99154;-87
2022/03/04 14:03:29;;;;;;;5.62;2.40;;;;;;;5.23;80.43;101209.36;3477943;83;98964;-88
2022/03/04 14:08:31;;;;;;;10.57;3.60;;;;;;;5.34;80.72;101213.36;3474923;84;98797;-87
2022/03/04 14:13:34;;;;;;;11.08;3.95;;;;;;;5.45;80.15;101216.58;3473381;83;98748;-89
2022/03/04 14:18:35;;;;;;;5.85;2.35;;;;;;;5.56;80.36;101216.48;3563821;81;34812;-90
2022/03/04 14:23:39;;;;;;;6.93;2.60;;;;;;;5.59;79.51;101218.55;3549165;80;98541;-88
2022/03/04 14:29:09;;;;;;;6.25;2.30;;;;;;;5.57;79.45;101214.77;3546578;81;98459;-89
2022/03/04 14:33:43;;;;;;;8.83;4.08;;;;;;;5.64;79.19;101212.91;3565487;81;98787;-87
2022/03/04 14:38:44;;;;;;;17.40;6.97;;;;;;;5.64;79.11;101215.09;3548766;81;98884;-88
2022/03/04 14:43:45;;;;;;;12.53;3.23;;;;;;;5.70;79.15;101217.88;3535464;80;99130;-87
2022/03/04 14:48:46;;;;;;;9.63;3.50;;;;;;;5.79;78.85;101214.55;3545626;82;26274;-87
2022/03/04 14:53:47;;;;;;;9.80;4.13;;;;;;;5.91;78.97;101220.73;3544599;79;97970;-87
2022/03/04 14:58:48;;;;;;;5.77;2.70;;;;;;;5.92;78.16;101221.78;3548556;82;98575;-87
2022/03/04 15:03:51;;;;;;;9.47;4.47;;;;;;;5.86;77.18;101222.28;3547639;81;98415;-90
2022/03/04 15:08:52;;;;;;;10.13;3.63;;;;;;;5.88;77.32;101217.28;3556749;80;98948;-88
2022/03/04 15:13:53;;;;;;;11.80;5.00;;;;;;;5.88;77.60;101224.11;3550856;78;98677;-86
2022/03/04 15:18:54;;;;;;;8.45;4.25;;;;;;;5.91;76.93;101222.92;3547292;81;25806;-88
2022/03/04 15:23:54;;;;;;;8.83;4.40;;;;;;;5.86;76.57;101220.36;3543045;80;98931;-86
2022/03/04 15:28:56;;;;;;;8.77;3.10;;;;;;;5.85;76.55;101220.69;3545243;81;99086;-86
2022/03/04 15:33:57;;;;;;;8.47;2.93;;;;;;;5.67;75.64;101221.25;3563323;81;98895;-87
2022/03/04 15:38:57;;;;;;;9.53;2.93;;;;;;;5.67;75.64;101221.25;3552375;81;98937;-88
2022/03/04 15:44:00;;;;;;;10.23;5.33;;;;;;;5.63;76.23;101217.56;3540382;82;98831;-87
2022/03/04 15:49:01;;;;;;;8.40;4.40;;;;;;;5.62;76.51;101216.55;3565867;82;31116;-87
2022/03/04 15:54:04;;;;;;;11.45;5.67;;;;;;;5.60;75.95;101218.22;3562354;78;98793;-86
2022/03/04 15:59:07;;;;;;;10.80;4.90;;;;;;;5.52;76.35;101217.66;3553303;81;98791;-87
2022/03/04 16:04:10;;;;;;;10.82;6.30;;;;;;;5.52;76.35;101222.34;3543228;81;99087;-87
2022/03/04 16:09:11;;;;;;;12.65;5.83;;;;;;;5.44;76.59;101225.87;3551892;81;99224;-87
2022/03/04 16:14:13;;;;;;;12.73;5.85;;;;;;;5.35;76.95;101223.73;3553351;81;99078;-87
2022/03/04 16:19:14;;;;;;;12.80;6.33;;;;;;;5.27;77.48;101238.17;3546044;82;26180;-87
2022/03/04 16:24:15;;;;;;;14.23;6.87;;;;;;;5.20;77.74;101236.49;3536992;82;98492;-86
2022/03/04 16:29:16;;;;;;;15.30;6.83;;;;;;;5.15;78.06;101228.47;3554765;81;98679;-88
2022/03/04 16:34:18;;;;;;;12.33;5.83;;;;;;;5.07;78.13;101236.11;3541476;80;98967;-87
2022/03/04 16:39:20;;;;;;;21.50;9.53;;;;;;;4.96;78.51;101237.55;3558266;81;98921;-87
2022/03/04 16:44:21;;;;;;;64.75;24.80;;;;;;;4.87;78.73;101244.91;3537383;81;98646;-87
2022/03/04 16:49:22;;;;;;;47.90;21.17;;;;;;;4.73;78.68;101247.77;3542383;81;100221;-86
2022/03/04 16:54:23;;;;;;;45.33;18.80;;;;;;;4.63;79.00;101242.61;3539892;82;98554;-87
2022/03/04 16:59:25;;;;;;;33.73;15.00;;;;;;;4.63;79.34;101250.79;3542420;82;99112;-89
2022/03/04 17:04:26;;;;;;;37.13;15.67;;;;;;;4.52;79.02;101252.20;3544003;78;99320;-86
2022/03/04 17:09:27;;;;;;;30.63;13.07;;;;;;;4.40;79.45;101262.10;3541441;81;99268;-86
2022/03/04 17:14:27;;;;;;;25.87;12.07;;;;;;;4.33;79.82;101263.94;3533861;81;99105;-86
2022/03/04 17:19:28;;;;;;;25.33;11.23;;;;;;;4.29;80.12;101268.95;3545941;80;99218;-86
2022/03/04 17:24:29;;;;;;;26.80;14.95;;;;;;;4.19;80.08;101267.31;3547381;81;98441;-86
2022/03/04 17:29:30;;;;;;;30.00;13.87;;;;;;;4.11;80.25;101265.38;3543994;81;99165;-87
2022/03/04 17:34:31;;;;;;;31.63;14.40;;;;;;;4.03;80.45;101266.12;3527329;81;99274;-87
2022/03/04 17:39:32;;;;;;;25.15;11.18;;;;;;;3.96;80.68;101271.77;3553780;80;98914;-85
2022/03/04 17:44:35;;;;;;;24.77;10.23;;;;;;;3.88;80.93;101263.79;3457170;81;99084;-84
2022/03/04 17:49:36;;;;;;;27.03;11.67;;;;;;;3.79;81.36;101273.84;3466656;82;99345;-85
2022/03/04 17:54:37;;;;;;;22.90;11.73;;;;;;;3.76;81.55;101273.09;3457743;84;98493;-85
2022/03/04 17:59:38;;;;;;;25.03;12.73;;;;;;;3.65;81.72;101274.47;3464619;82;99148;-86
2022/03/04 18:04:40;;;;;;;27.80;12.50;;;;;;;3.64;81.99;101272.05;3463631;82;99303;-86
2022/03/04 18:09:41;;;;;;;22.33;10.40;;;;;;;3.57;82.30;101275.23;3461204;82;99217;-83
2022/03/04 18:14:44;;;;;;;26.40;14.80;;;;;;;3.57;82.40;101267.61;3479038;82;99302;-84
2022/03/04 18:19:45;;;;;;;44.57;25.00;;;;;;;3.54;82.50;101275.83;3470113;83;99166;-84
2022/03/04 18:24:46;;;;;;;52.03;25.50;;;;;;;3.53;82.69;101271.52;3464697;83;33860;-84
2022/03/04 18:29:47;;;;;;;47.38;21.55;;;;;;;3.49;82.82;101284.12;3422844;84;99211;-83
2022/03/04 18:34:48;;;;;;;43.90;19.20;;;;;;;3.46;82.86;101275.23;3461219;84;99283;-84
2022/03/04 18:50:28;;;;;;;43.63;20.63;;;;;;;3.39;83.25;101289.80;3439047;83;99318;-84
2022/03/04 18:55:29;;;;;;;50.63;23.70;;;;;;;3.34;83.51;101287.20;3448141;83;99288;-84
2022/03/04 19:00:31;;;;;;;63.30;27.87;;;;;;;3.34;83.70;101295.94;3445848;84;99097;-84
2022/03/04 19:05:33;;;;;;;58.50;28.20;;;;;;;3.24;84.01;101299.70;3449604;84;99075;-84
2022/03/04 19:10:34;;;;;;;55.83;26.57;;;;;;;3.15;84.03;101308.33;3462042;83;99388;-84
2022/03/04 19:15:35;;;;;;;38.43;19.97;;;;;;;3.15;84.41;101299.35;3452251;83;99262;-84
2022/03/04 19:20:36;;;;;;;37.13;17.48;;;;;;;3.13;84.58;101298.32;3465381;83;99240;-84
2022/03/04 19:25:37;;;;;;;32.33;15.30;;;;;;;3.10;84.57;101302.18;3457794;84;99281;-83
2022/03/04 19:30:38;;;;;;;31.17;14.50;;;;;;;3.08;84.57;101301.69;3458855;84;98656;-84
2022/03/04 19:35:39;;;;;;;35.03;15.03;;;;;;;3.05;84.58;101307.19;3476487;82;99055;-84
2022/03/04 19:40:42;;;;;;;31.93;15.60;;;;;;;3.01;84.79;101312.98;3455536;83;99213;-84
2022/03/04 19:45:43;;;;;;;28.17;13.60;;;;;;;2.98;84.95;101313.61;3460555;83;98938;-83
2022/03/04 19:50:43;;;;;;;31.47;15.03;;;;;;;2.99;84.96;101311.67;3476757;83;98883;-82
2022/03/04 19:55:44;;;;;;;28.07;13.10;;;;;;;2.95;84.84;101306.62;3466329;84;99180;-84
2022/03/04 20:00:45;;;;;;;29.50;13.40;;;;;;;2.92;84.83;101301.78;3465689;84;98507;-84
2022/03/04 20:05:46;;;;;;;111.77;43.23;;;;;;;2.87;85.12;101303.24;3453746;83;99353;-84
2022/03/04 20:10:47;;;;;;;96.13;40.47;;;;;;;2.84;84.87;101299.22;3457119;82;98816;-84
2022/03/04 20:15:47;;;;;;;68.47;38.03;;;;;;;2.81;84.74;101301.74;3479270;82;99234;-83
2022/03/04 20:20:49;;;;;;;35.63;18.77;;;;;;;2.76;84.77;101306.74;3454080;84;98773;-84
2022/03/04 20:25:51;;;;;;;36.37;17.73;;;;;;;2.69;84.84;101307.69;3444438;84;99363;-85
2022/03/04 20:30:52;;;;;;;33.30;16.32;;;;;;;2.62;84.78;101310.58;3400934;85;98615;-84
2022/03/04 20:35:54;;;;;;;37.27;14.70;;;;;;;2.52;84.85;101317.58;3411650;84;99139;-85
2022/03/04 20:40:54;;;;;;;29.63;12.53;;;;;;;2.39;84.89;101321.07;3341864;86;99040;-84
2022/03/04 20:45:55;;;;;;;35.23;14.70;;;;;;;2.34;84.69;101326.59;3471529;83;98851;-84
2022/03/04 20:50:56;;;;;;;26.87;10.77;;;;;;;2.22;84.63;101320.31;3472035;83;99027;-84
2022/03/04 20:55:59;;;;;;;42.40;18.00;;;;;;;2.12;84.75;101329.19;3485151;83;98797;-83
2022/03/04 21:01:00;;;;;;;46.20;18.33;;;;;;;2.05;84.61;101330.13;3399713;85;98584;-82
2022/03/04 21:06:01;;;;;;;38.83;14.63;;;;;;;1.97;84.77;101332.19;3404592;85;99227;-84
2022/03/04 21:11:02;;;;;;;30.82;12.55;;;;;;;1.90;85.18;101338.00;3415090;84;98687;-82
2022/03/04 21:16:04;;;;;;;35.93;13.57;;;;;;;1.87;85.07;101345.36;3409587;85;98868;-83
2022/03/04 21:21:05;;;;;;;28.95;11.70;;;;;;;1.84;85.05;101350.58;3411030;85;99710;-82
2022/03/04 21:26:06;;;;;;;37.57;12.83;;;;;;;1.83;85.09;101347.62;3416138;84;98810;-84
2022/03/04 21:31:06;;;;;;;22.50;8.70;;;;;;;1.82;85.13;101352.26;3454196;84;98913;-83
2022/03/04 21:36:07;;;;;;;23.38;9.95;;;;;;;1.81;85.38;101345.77;3478223;83;99049;-83
2022/03/04 21:41:09;;;;;;;22.57;9.70;;;;;;;1.77;85.19;101353.70;3459581;83;98837;-84
2022/03/04 21:46:10;;;;;;;20.33;8.83;;;;;;;1.74;85.31;101356.17;3460081;83;99022;-84
2022/03/04 21:51:11;;;;;;;17.70;8.07;;;;;;;1.72;85.48;101365.98;3463729;84;99049;-84
2022/03/04 21:56:12;;;;;;;18.60;8.50;;;;;;;1.67;85.15;101361.17;3468173;83;99341;-84
2022/03/04 22:01:13;;;;;;;18.20;8.63;;;;;;;1.61;84.98;101357.75;3469633;84;98510;-84
2022/03/04 22:06:14;;;;;;;18.90;8.93;;;;;;;1.57;84.97;101365.39;3480535;83;98765;-84
2022/03/04 22:11:15;;;;;;;21.65;8.85;;;;;;;1.49;84.92;101370.93;3431279;84;98600;-84
2022/03/04 22:16:16;;;;;;;18.17;8.03;;;;;;;1.47;84.87;101373.68;3442768;83;98969;-86
2022/03/04 22:21:17;;;;;;;16.53;7.60;;;;;;;1.36;84.93;101370.32;3431575;81;99015;-85
2022/03/04 22:26:18;;;;;;;23.60;9.03;;;;;;;1.29;84.77;101379.91;3436120;84;99024;-85
2022/03/04 22:31:20;;;;;;;18.73;7.27;;;;;;;1.23;84.85;101383.27;3431700;84;98760;-85
2022/03/04 22:36:21;;;;;;;18.77;7.67;;;;;;;1.20;84.75;101381.69;3399604;85;98836;-85
2022/03/04 22:41:23;;;;;;;19.30;7.83;;;;;;;1.14;84.19;101378.76;3427504;83;99073;-85
2022/03/04 22:46:24;;;;;;;18.40;7.67;;;;;;;1.10;83.96;101387.23;3402706;83;98997;-85
2022/03/04 22:51:25;;;;;;;19.07;7.90;;;;;;;1.07;84.02;101374.25;3419723;84;98910;-85
2022/03/04 22:56:26;;;;;;;17.30;7.43;;;;;;;1.01;83.79;101373.52;3436260;84;99089;-86
2022/03/04 23:01:28;;;;;;;19.73;7.77;;;;;;;0.98;83.88;101380.05;3425372;84;99010;-85
2022/03/04 23:11:48;;;;;;;21.20;9.67;;;;;;;0.86;84.04;101379.13;3413922;84;98957;-87
2022/03/04 23:16:50;;;;;;;22.47;9.00;;;;;;;0.75;84.20;101369.51;3456711;82;98811;-87
2022/03/04 23:21:52;;;;;;;18.40;8.30;;;;;;;0.57;84.29;101358.62;3477085;82;99068;-85
2022/03/04 23:26:54;;;;;;;17.27;7.17;;;;;;;0.56;84.41;101369.20;3464728;79;98934;-85
2022/03/04 23:31:55;;;;;;;22.20;9.25;;;;;;;0.48;84.55;101376.58;3468004;82;98947;-85
2022/03/04 23:36:55;;;;;;;18.40;8.63;;;;;;;0.38;84.67;101378.86;3457208;82;34934;-85
2022/03/04 23:41:56;;;;;;;16.60;8.10;;;;;;;0.25;84.86;101371.42;3415504;83;98818;-85